sensor_id;sensor_type;location;lat;lon;timestamp;temperature;humidity
46976;DHT22;32724;51.094;6.996;2023-05-29T00:01:18;15.20;99.90
46976;DHT22;32724;51.094;6.996;2023-05-29T00:03:44;15.20;99.90
46976;DHT22;32724;51.094;6.996;2023-05-29T00:06:10;15.10;99.90
46976;DHT22;32724;51.094;6.996;2023-05-29T00:08:35;15.10;99.90
46976;DHT22;32724;51.094;6.996;2023-05-29T00:11:01;15.00;99.90
46976;DHT22;32724;51.094;6.996;2023-05-29T00:13:26;15.10;99.90
46976;DHT22;32724;51.094;6.996;2023-05-29T00:15:52;15.00;99.90
46976;DHT22;32724;51.094;6.996;2023-05-29T00:18:17;15.00;99.90
46976;DHT22;32724;51.094;6.996;2023-05-29T00:20:43;14.90;99.90
46976;DHT22;32724;51.094;6.996;2023-05-29T00:23:08;14.90;99.90
46976;DHT22;32724;51.094;6.996;2023-05-29T00:25:35;14.80;99.90
46976;DHT22;32724;51.094;6.996;2023-05-29T00:28:00;14.80;99.90
46976;DHT22;32724;51.094;6.996;2023-05-29T00:30:26;14.70;99.90
46976;DHT22;32724;51.094;6.996;2023-05-29T00:32:51;14.60;99.90
46976;DHT22;32724;51.094;6.996;2023-05-29T00:35:17;14.60;99.90
46976;DHT22;32724;51.094;6.996;2023-05-29T00:37:43;14.50;99.90
46976;DHT22;32724;51.094;6.996;2023-05-29T00:40:09;14.40;99.90
46976;DHT22;32724;51.094;6.996;2023-05-29T00:42:35;14.40;99.90
46976;DHT22;32724;51.094;6.996;2023-05-29T00:45:00;14.40;99.90
46976;DHT22;32724;51.094;6.996;2023-05-29T00:47:26;14.40;99.90
46976;DHT22;32724;51.094;6.996;2023-05-29T00:49:51;14.40;99.90
46976;DHT22;32724;51.094;6.996;2023-05-29T00:52:17;14.30;99.90
46976;DHT22;32724;51.094;6.996;2023-05-29T00:54:44;14.30;99.90
46976;DHT22;32724;51.094;6.996;2023-05-29T00:57:11;14.10;99.90
46976;DHT22;32724;51.094;6.996;2023-05-29T00:59:37;14.10;99.90
46976;DHT22;32724;51.094;6.996;2023-05-29T01:02:03;14.00;99.90
46976;DHT22;32724;51.094;6.996;2023-05-29T01:04:28;14.00;99.90
46976;DHT22;32724;51.094;6.996;2023-05-29T01:06:54;14.00;99.90
46976;DHT22;32724;51.094;6.996;2023-05-29T01:09:20;14.10;99.90
46976;DHT22;32724;51.094;6.996;2023-05-29T01:14:22;14.00;99.90
46976;DHT22;32724;51.094;6.996;2023-05-29T01:16:59;13.90;99.90
46976;DHT22;32724;51.094;6.996;2023-05-29T01:22:31;13.80;99.90
46976;DHT22;32724;51.094;6.996;2023-05-29T01:25:04;13.80;99.90
46976;DHT22;32724;51.094;6.996;2023-05-29T01:27:36;13.80;99.90
46976;DHT22;32724;51.094;6.996;2023-05-29T01:30:04;13.80;99.90
46976;DHT22;32724;51.094;6.996;2023-05-29T01:32:31;13.80;99.90
46976;DHT22;32724;51.094;6.996;2023-05-29T01:34:56;13.80;99.90
46976;DHT22;32724;51.094;6.996;2023-05-29T01:37:22;13.70;99.90
46976;DHT22;32724;51.094;6.996;2023-05-29T01:39:48;13.60;99.90
46976;DHT22;32724;51.094;6.996;2023-05-29T01:42:13;13.60;99.90
46976;DHT22;32724;51.094;6.996;2023-05-29T01:44:39;13.50;99.90
46976;DHT22;32724;51.094;6.996;2023-05-29T01:47:05;13.50;99.90
46976;DHT22;32724;51.094;6.996;2023-05-29T01:49:31;13.40;99.90
46976;DHT22;32724;51.094;6.996;2023-05-29T01:51:56;13.40;99.90
46976;DHT22;32724;51.094;6.996;2023-05-29T01:54:22;13.40;99.90
46976;DHT22;32724;51.094;6.996;2023-05-29T01:56:47;13.30;99.90
46976;DHT22;32724;51.094;6.996;2023-05-29T01:59:13;13.30;99.90
46976;DHT22;32724;51.094;6.996;2023-05-29T02:01:39;13.30;99.90
46976;DHT22;32724;51.094;6.996;2023-05-29T02:04:05;13.30;99.90
46976;DHT22;32724;51.094;6.996;2023-05-29T02:06:31;13.20;99.90
46976;DHT22;32724;51.094;6.996;2023-05-29T02:08:58;13.10;99.90
46976;DHT22;32724;51.094;6.996;2023-05-29T02:11:24;13.10;99.90
46976;DHT22;32724;51.094;6.996;2023-05-29T02:13:51;13.00;99.90
46976;DHT22;32724;51.094;6.996;2023-05-29T02:16:16;13.00;99.90
46976;DHT22;32724;51.094;6.996;2023-05-29T02:18:42;12.90;99.90
46976;DHT22;32724;51.094;6.996;2023-05-29T02:21:08;12.90;99.90
46976;DHT22;32724;51.094;6.996;2023-05-29T02:23:34;12.80;99.90
46976;DHT22;32724;51.094;6.996;2023-05-29T02:26:00;12.80;99.90
46976;DHT22;32724;51.094;6.996;2023-05-29T02:28:25;12.80;99.90
46976;DHT22;32724;51.094;6.996;2023-05-29T02:30:50;12.70;99.90
46976;DHT22;32724;51.094;6.996;2023-05-29T02:33:16;12.70;99.90
46976;DHT22;32724;51.094;6.996;2023-05-29T02:35:41;12.60;99.90
46976;DHT22;32724;51.094;6.996;2023-05-29T02:38:07;12.50;99.90
46976;DHT22;32724;51.094;6.996;2023-05-29T02:40:32;12.40;99.90
46976;DHT22;32724;51.094;6.996;2023-05-29T02:42:58;12.40;99.90
46976;DHT22;32724;51.094;6.996;2023-05-29T02:45:23;12.30;99.90
46976;DHT22;32724;51.094;6.996;2023-05-29T02:47:49;12.30;99.90
46976;DHT22;32724;51.094;6.996;2023-05-29T02:50:14;12.20;99.90
46976;DHT22;32724;51.094;6.996;2023-05-29T02:52:40;12.20;99.90
46976;DHT22;32724;51.094;6.996;2023-05-29T02:55:06;12.10;99.90
46976;DHT22;32724;51.094;6.996;2023-05-29T02:57:31;12.10;99.90
46976;DHT22;32724;51.094;6.996;2023-05-29T02:59:57;12.10;99.90
46976;DHT22;32724;51.094;6.996;2023-05-29T03:02:23;12.00;99.90
46976;DHT22;32724;51.094;6.996;2023-05-29T03:04:48;11.90;99.90
46976;DHT22;32724;51.094;6.996;2023-05-29T03:07:17;11.90;99.90
46976;DHT22;32724;51.094;6.996;2023-05-29T03:09:43;11.80;99.90
46976;DHT22;32724;51.094;6.996;2023-05-29T03:12:09;11.70;99.90
46976;DHT22;32724;51.094;6.996;2023-05-29T03:14:34;11.70;99.90
46976;DHT22;32724;51.094;6.996;2023-05-29T03:17:01;11.70;99.90
46976;DHT22;32724;51.094;6.996;2023-05-29T03:19:27;11.60;99.90
46976;DHT22;32724;51.094;6.996;2023-05-29T03:21:52;11.60;99.90
46976;DHT22;32724;51.094;6.996;2023-05-29T03:24:18;11.50;99.90
46976;DHT22;32724;51.094;6.996;2023-05-29T03:26:43;11.60;99.90
46976;DHT22;32724;51.094;6.996;2023-05-29T03:29:09;11.50;99.90
46976;DHT22;32724;51.094;6.996;2023-05-29T03:31:34;11.50;99.90
46976;DHT22;32724;51.094;6.996;2023-05-29T03:34:00;11.50;99.90
46976;DHT22;32724;51.094;6.996;2023-05-29T03:36:25;11.40;99.90
46976;DHT22;32724;51.094;6.996;2023-05-29T03:38:52;11.50;99.90
46976;DHT22;32724;51.094;6.996;2023-05-29T03:41:17;11.50;99.90
46976;DHT22;32724;51.094;6.996;2023-05-29T03:43:42;11.40;99.90
46976;DHT22;32724;51.094;6.996;2023-05-29T03:46:08;11.40;99.90
46976;DHT22;32724;51.094;6.996;2023-05-29T03:48:33;11.40;99.90
46976;DHT22;32724;51.094;6.996;2023-05-29T03:50:59;11.40;99.90
46976;DHT22;32724;51.094;6.996;2023-05-29T03:53:24;11.40;99.90
46976;DHT22;32724;51.094;6.996;2023-05-29T03:55:50;11.40;99.90
46976;DHT22;32724;51.094;6.996;2023-05-29T03:58:15;11.50;99.90
46976;DHT22;32724;51.094;6.996;2023-05-29T04:00:41;11.50;99.90
46976;DHT22;32724;51.094;6.996;2023-05-29T04:03:06;11.50;99.90
46976;DHT22;32724;51.094;6.996;2023-05-29T04:05:32;11.50;99.90
46976;DHT22;32724;51.094;6.996;2023-05-29T04:07:58;11.60;99.90
46976;DHT22;32724;51.094;6.996;2023-05-29T04:10:23;11.60;99.90
46976;DHT22;32724;51.094;6.996;2023-05-29T04:12:50;11.60;99.90
46976;DHT22;32724;51.094;6.996;2023-05-29T04:15:15;11.60;99.90
46976;DHT22;32724;51.094;6.996;2023-05-29T04:17:41;11.70;99.90
46976;DHT22;32724;51.094;6.996;2023-05-29T04:20:06;11.80;99.90
46976;DHT22;32724;51.094;6.996;2023-05-29T04:22:37;11.80;99.90
46976;DHT22;32724;51.094;6.996;2023-05-29T04:25:03;11.90;99.90
46976;DHT22;32724;51.094;6.996;2023-05-29T04:27:29;11.90;99.90
46976;DHT22;32724;51.094;6.996;2023-05-29T04:29:55;11.90;99.90
46976;DHT22;32724;51.094;6.996;2023-05-29T04:32:21;11.90;99.90
46976;DHT22;32724;51.094;6.996;2023-05-29T04:34:46;11.90;99.90
46976;DHT22;32724;51.094;6.996;2023-05-29T04:37:13;11.90;99.90
46976;DHT22;32724;51.094;6.996;2023-05-29T04:39:38;12.00;99.90
46976;DHT22;32724;51.094;6.996;2023-05-29T04:42:04;12.10;99.90
46976;DHT22;32724;51.094;6.996;2023-05-29T04:44:30;12.10;99.90
46976;DHT22;32724;51.094;6.996;2023-05-29T04:46:56;12.20;99.90
46976;DHT22;32724;51.094;6.996;2023-05-29T04:49:24;12.20;99.90
46976;DHT22;32724;51.094;6.996;2023-05-29T04:51:49;12.20;99.90
46976;DHT22;32724;51.094;6.996;2023-05-29T04:54:17;12.30;99.90
46976;DHT22;32724;51.094;6.996;2023-05-29T04:56:45;12.40;99.90
46976;DHT22;32724;51.094;6.996;2023-05-29T04:59:11;12.50;99.90
46976;DHT22;32724;51.094;6.996;2023-05-29T05:01:37;12.60;99.90
46976;DHT22;32724;51.094;6.996;2023-05-29T05:04:02;12.60;99.90
46976;DHT22;32724;51.094;6.996;2023-05-29T05:06:28;12.50;99.90
46976;DHT22;32724;51.094;6.996;2023-05-29T05:08:54;12.70;99.90
46976;DHT22;32724;51.094;6.996;2023-05-29T05:11:20;13.40;99.90
46976;DHT22;32724;51.094;6.996;2023-05-29T05:13:46;14.50;99.90
46976;DHT22;32724;51.094;6.996;2023-05-29T05:16:11;15.50;99.90
46976;DHT22;32724;51.094;6.996;2023-05-29T05:18:38;16.60;99.90
46976;DHT22;32724;51.094;6.996;2023-05-29T05:21:04;17.30;99.90
46976;DHT22;32724;51.094;6.996;2023-05-29T05:23:29;17.70;99.80
46976;DHT22;32724;51.094;6.996;2023-05-29T05:25:55;18.00;97.70
46976;DHT22;32724;51.094;6.996;2023-05-29T05:28:20;17.90;97.50
46976;DHT22;32724;51.094;6.996;2023-05-29T05:30:46;17.80;97.20
46976;DHT22;32724;51.094;6.996;2023-05-29T05:33:12;17.90;97.00
46976;DHT22;32724;51.094;6.996;2023-05-29T05:35:37;18.40;96.20
46976;DHT22;32724;51.094;6.996;2023-05-29T05:38:05;18.40;95.50
46976;DHT22;32724;51.094;6.996;2023-05-29T05:40:31;18.70;94.60
46976;DHT22;32724;51.094;6.996;2023-05-29T05:42:57;18.60;94.00
46976;DHT22;32724;51.094;6.996;2023-05-29T05:45:22;18.60;94.00
46976;DHT22;32724;51.094;6.996;2023-05-29T05:47:47;18.90;93.90
46976;DHT22;32724;51.094;6.996;2023-05-29T05:50:13;19.10;93.20
46976;DHT22;32724;51.094;6.996;2023-05-29T05:52:38;19.60;92.50
46976;DHT22;32724;51.094;6.996;2023-05-29T05:55:04;19.90;92.20
46976;DHT22;32724;51.094;6.996;2023-05-29T05:57:29;19.60;91.30
46976;DHT22;32724;51.094;6.996;2023-05-29T05:59:58;19.50;91.20
46976;DHT22;32724;51.094;6.996;2023-05-29T06:02:23;19.60;91.50
46976;DHT22;32724;51.094;6.996;2023-05-29T06:04:49;19.80;91.00
46976;DHT22;32724;51.094;6.996;2023-05-29T06:07:15;20.30;90.40
46976;DHT22;32724;51.094;6.996;2023-05-29T06:09:40;20.80;89.60
46976;DHT22;32724;51.094;6.996;2023-05-29T06:12:07;21.00;87.90
46976;DHT22;32724;51.094;6.996;2023-05-29T06:14:33;21.20;87.30
46976;DHT22;32724;51.094;6.996;2023-05-29T06:16:59;20.90;86.50
46976;DHT22;32724;51.094;6.996;2023-05-29T06:19:25;20.70;87.50
46976;DHT22;32724;51.094;6.996;2023-05-29T06:21:50;20.90;86.70
46976;DHT22;32724;51.094;6.996;2023-05-29T06:24:16;21.10;86.90
46976;DHT22;32724;51.094;6.996;2023-05-29T06:26:41;21.20;85.40
46976;DHT22;32724;51.094;6.996;2023-05-29T06:29:07;21.70;84.40
46976;DHT22;32724;51.094;6.996;2023-05-29T06:31:32;21.30;83.70
46976;DHT22;32724;51.094;6.996;2023-05-29T06:33:59;20.80;84.90
46976;DHT22;32724;51.094;6.996;2023-05-29T06:36:24;21.40;84.90
46976;DHT22;32724;51.094;6.996;2023-05-29T06:38:50;21.50;83.00
46976;DHT22;32724;51.094;6.996;2023-05-29T06:41:15;21.50;83.30
46976;DHT22;32724;51.094;6.996;2023-05-29T06:43:41;21.40;83.10
46976;DHT22;32724;51.094;6.996;2023-05-29T06:46:07;21.20;83.90
46976;DHT22;32724;51.094;6.996;2023-05-29T06:48:33;21.10;84.10
46976;DHT22;32724;51.094;6.996;2023-05-29T06:50:59;21.30;83.70
46976;DHT22;32724;51.094;6.996;2023-05-29T06:53:24;21.40;82.60
46976;DHT22;32724;51.094;6.996;2023-05-29T06:55:50;21.00;82.50
46976;DHT22;32724;51.094;6.996;2023-05-29T06:58:15;20.90;84.20
46976;DHT22;32724;51.094;6.996;2023-05-29T07:00:41;21.00;83.20
46976;DHT22;32724;51.094;6.996;2023-05-29T07:03:06;20.80;83.30
46976;DHT22;32724;51.094;6.996;2023-05-29T07:05:32;20.60;85.10
46976;DHT22;32724;51.094;6.996;2023-05-29T07:07:57;20.80;85.10
46976;DHT22;32724;51.094;6.996;2023-05-29T07:10:23;20.60;84.10
46976;DHT22;32724;51.094;6.996;2023-05-29T07:12:48;20.00;85.90
46976;DHT22;32724;51.094;6.996;2023-05-29T07:15:14;19.40;87.60
46976;DHT22;32724;51.094;6.996;2023-05-29T07:17:39;19.20;90.00
46976;DHT22;32724;51.094;6.996;2023-05-29T07:20:05;19.30;89.70
46976;DHT22;32724;51.094;6.996;2023-05-29T07:22:33;19.30;90.20
46976;DHT22;32724;51.094;6.996;2023-05-29T07:24:59;19.10;89.90
46976;DHT22;32724;51.094;6.996;2023-05-29T07:27:25;19.10;90.70
46976;DHT22;32724;51.094;6.996;2023-05-29T07:29:50;18.90;90.80
46976;DHT22;32724;51.094;6.996;2023-05-29T07:32:16;19.00;90.50
46976;DHT22;32724;51.094;6.996;2023-05-29T07:34:41;19.10;91.00
46976;DHT22;32724;51.094;6.996;2023-05-29T07:37:07;19.20;91.10
46976;DHT22;32724;51.094;6.996;2023-05-29T07:39:34;19.40;90.40
46976;DHT22;32724;51.094;6.996;2023-05-29T07:42:00;19.40;90.70
46976;DHT22;32724;51.094;6.996;2023-05-29T07:44:28;19.20;90.80
46976;DHT22;32724;51.094;6.996;2023-05-29T07:46:54;19.00;90.70
46976;DHT22;32724;51.094;6.996;2023-05-29T07:49:19;18.50;91.20
46976;DHT22;32724;51.094;6.996;2023-05-29T07:51:45;18.40;91.60
46976;DHT22;32724;51.094;6.996;2023-05-29T07:54:10;18.20;91.90
46976;DHT22;32724;51.094;6.996;2023-05-29T07:56:36;18.00;92.20
46976;DHT22;32724;51.094;6.996;2023-05-29T07:59:02;18.00;93.00
46976;DHT22;32724;51.094;6.996;2023-05-29T08:01:28;18.20;92.90
46976;DHT22;32724;51.094;6.996;2023-05-29T08:03:54;18.40;92.30
46976;DHT22;32724;51.094;6.996;2023-05-29T08:06:19;18.30;92.50
46976;DHT22;32724;51.094;6.996;2023-05-29T08:08:45;18.00;92.90
46976;DHT22;32724;51.094;6.996;2023-05-29T08:11:10;17.80;93.90
46976;DHT22;32724;51.094;6.996;2023-05-29T08:13:36;17.80;94.10
46976;DHT22;32724;51.094;6.996;2023-05-29T08:16:02;17.70;93.70
46976;DHT22;32724;51.094;6.996;2023-05-29T08:18:30;17.60;94.10
46976;DHT22;32724;51.094;6.996;2023-05-29T08:20:56;17.70;93.90
46976;DHT22;32724;51.094;6.996;2023-05-29T08:23:21;17.60;94.10
46976;DHT22;32724;51.094;6.996;2023-05-29T08:25:47;17.70;94.50
46976;DHT22;32724;51.094;6.996;2023-05-29T08:28:14;17.90;95.70
46976;DHT22;32724;51.094;6.996;2023-05-29T08:30:39;18.10;94.20
46976;DHT22;32724;51.094;6.996;2023-05-29T08:33:05;18.30;93.50
46976;DHT22;32724;51.094;6.996;2023-05-29T08:35:30;18.50;93.40
46976;DHT22;32724;51.094;6.996;2023-05-29T08:37:56;18.50;92.70
46976;DHT22;32724;51.094;6.996;2023-05-29T08:40:21;18.40;93.40
46976;DHT22;32724;51.094;6.996;2023-05-29T08:42:50;18.80;93.30
46976;DHT22;32724;51.094;6.996;2023-05-29T08:45:16;19.00;92.20
46976;DHT22;32724;51.094;6.996;2023-05-29T08:47:43;19.00;91.80
46976;DHT22;32724;51.094;6.996;2023-05-29T08:50:10;19.10;92.50
46976;DHT22;32724;51.094;6.996;2023-05-29T08:52:35;19.20;92.20
46976;DHT22;32724;51.094;6.996;2023-05-29T08:55:01;19.20;91.50
46976;DHT22;32724;51.094;6.996;2023-05-29T08:57:28;19.20;92.40
46976;DHT22;32724;51.094;6.996;2023-05-29T08:59:54;19.10;92.00
46976;DHT22;32724;51.094;6.996;2023-05-29T09:02:20;19.20;92.00
46976;DHT22;32724;51.094;6.996;2023-05-29T09:04:46;19.30;92.40
46976;DHT22;32724;51.094;6.996;2023-05-29T09:07:18;19.40;92.00
46976;DHT22;32724;51.094;6.996;2023-05-29T09:09:45;19.60;91.80
46976;DHT22;32724;51.094;6.996;2023-05-29T09:12:10;19.80;91.70
46976;DHT22;32724;51.094;6.996;2023-05-29T09:14:36;20.10;91.60
46976;DHT22;32724;51.094;6.996;2023-05-29T09:17:03;20.10;91.00
46976;DHT22;32724;51.094;6.996;2023-05-29T09:19:29;20.10;90.90
46976;DHT22;32724;51.094;6.996;2023-05-29T09:22:02;20.20;91.50
46976;DHT22;32724;51.094;6.996;2023-05-29T09:24:28;20.20;90.80
46976;DHT22;32724;51.094;6.996;2023-05-29T09:26:53;20.00;91.10
46976;DHT22;32724;51.094;6.996;2023-05-29T09:29:19;20.10;91.90
46976;DHT22;32724;51.094;6.996;2023-05-29T09:31:45;19.60;91.30
46976;DHT22;32724;51.094;6.996;2023-05-29T09:34:12;19.50;91.60
46976;DHT22;32724;51.094;6.996;2023-05-29T09:36:37;19.50;91.50
46976;DHT22;32724;51.094;6.996;2023-05-29T09:39:03;19.60;92.00
46976;DHT22;32724;51.094;6.996;2023-05-29T09:41:29;19.70;91.50
46976;DHT22;32724;51.094;6.996;2023-05-29T09:43:56;19.80;91.40
46976;DHT22;32724;51.094;6.996;2023-05-29T09:46:22;19.70;91.60
46976;DHT22;32724;51.094;6.996;2023-05-29T09:48:48;19.60;91.90
46976;DHT22;32724;51.094;6.996;2023-05-29T09:51:23;19.60;91.70
46976;DHT22;32724;51.094;6.996;2023-05-29T09:53:49;19.70;91.60
46976;DHT22;32724;51.094;6.996;2023-05-29T09:56:16;19.80;92.10
46976;DHT22;32724;51.094;6.996;2023-05-29T09:58:43;20.00;91.30
46976;DHT22;32724;51.094;6.996;2023-05-29T10:01:12;20.00;91.60
46976;DHT22;32724;51.094;6.996;2023-05-29T10:03:37;19.80;91.50
46976;DHT22;32724;51.094;6.996;2023-05-29T10:06:03;19.60;91.50
46976;DHT22;32724;51.094;6.996;2023-05-29T10:08:30;19.50;92.00
46976;DHT22;32724;51.094;6.996;2023-05-29T10:11:00;19.60;91.80
46976;DHT22;32724;51.094;6.996;2023-05-29T10:13:36;19.80;91.50
46976;DHT22;32724;51.094;6.996;2023-05-29T10:16:03;20.10;92.00
46976;DHT22;32724;51.094;6.996;2023-05-29T10:18:37;20.10;92.00
46976;DHT22;32724;51.094;6.996;2023-05-29T10:21:02;20.00;91.80
46976;DHT22;32724;51.094;6.996;2023-05-29T10:23:28;20.20;91.30
46976;DHT22;32724;51.094;6.996;2023-05-29T10:25:57;19.70;91.20
46976;DHT22;32724;51.094;6.996;2023-05-29T10:28:24;19.60;91.80
46976;DHT22;32724;51.094;6.996;2023-05-29T10:30:54;19.50;92.00
46976;DHT22;32724;51.094;6.996;2023-05-29T10:36:10;19.60;92.80
46976;DHT22;32724;51.094;6.996;2023-05-29T10:38:37;19.90;92.20
46976;DHT22;32724;51.094;6.996;2023-05-29T10:43:47;20.30;90.70
46976;DHT22;32724;51.094;6.996;2023-05-29T10:46:13;20.20;91.60
46976;DHT22;32724;51.094;6.996;2023-05-29T10:48:39;20.20;91.60
46976;DHT22;32724;51.094;6.996;2023-05-29T10:51:06;20.40;91.10
46976;DHT22;32724;51.094;6.996;2023-05-29T10:53:33;20.60;90.60
46976;DHT22;32724;51.094;6.996;2023-05-29T10:55:58;20.70;90.20
46976;DHT22;32724;51.094;6.996;2023-05-29T10:58:24;20.80;90.30
46976;DHT22;32724;51.094;6.996;2023-05-29T11:00:51;21.00;90.40
46976;DHT22;32724;51.094;6.996;2023-05-29T11:03:20;20.90;90.10
46976;DHT22;32724;51.094;6.996;2023-05-29T11:06:05;20.90;90.50
46976;DHT22;32724;51.094;6.996;2023-05-29T11:10:59;21.40;89.60
46976;DHT22;32724;51.094;6.996;2023-05-29T11:13:26;21.60;90.20
46976;DHT22;32724;51.094;6.996;2023-05-29T11:18:45;21.40;88.70
46976;DHT22;32724;51.094;6.996;2023-05-29T11:21:31;21.40;88.30
46976;DHT22;32724;51.094;6.996;2023-05-29T11:23:59;21.30;88.30
46976;DHT22;32724;51.094;6.996;2023-05-29T11:26:28;21.00;88.00
46976;DHT22;32724;51.094;6.996;2023-05-29T11:29:01;21.00;89.40
46976;DHT22;32724;51.094;6.996;2023-05-29T11:31:28;21.20;89.90
46976;DHT22;32724;51.094;6.996;2023-05-29T11:33:58;21.50;88.70
46976;DHT22;32724;51.094;6.996;2023-05-29T11:36:24;21.50;87.20
46976;DHT22;32724;51.094;6.996;2023-05-29T11:38:51;21.50;87.80
46976;DHT22;32724;51.094;6.996;2023-05-29T11:41:16;21.40;88.10
46976;DHT22;32724;51.094;6.996;2023-05-29T11:43:42;21.40;87.70
46976;DHT22;32724;51.094;6.996;2023-05-29T11:46:17;21.50;88.70
46976;DHT22;32724;51.094;6.996;2023-05-29T11:48:47;21.60;88.00
46976;DHT22;32724;51.094;6.996;2023-05-29T11:51:12;21.40;87.70
46976;DHT22;32724;51.094;6.996;2023-05-29T11:53:42;21.80;87.20
46976;DHT22;32724;51.094;6.996;2023-05-29T11:56:09;22.00;86.40
46976;DHT22;32724;51.094;6.996;2023-05-29T11:58:36;22.10;84.90
46976;DHT22;32724;51.094;6.996;2023-05-29T12:01:01;22.00;84.80
46976;DHT22;32724;51.094;6.996;2023-05-29T12:03:27;21.80;85.50
46976;DHT22;32724;51.094;6.996;2023-05-29T12:05:52;21.70;84.80
46976;DHT22;32724;51.094;6.996;2023-05-29T12:08:21;21.60;86.10
46976;DHT22;32724;51.094;6.996;2023-05-29T12:10:47;21.60;85.50
46976;DHT22;32724;51.094;6.996;2023-05-29T12:13:13;21.70;85.30
46976;DHT22;32724;51.094;6.996;2023-05-29T12:15:42;21.70;85.30
46976;DHT22;32724;51.094;6.996;2023-05-29T12:18:08;21.80;85.70
46976;DHT22;32724;51.094;6.996;2023-05-29T12:20:33;21.80;85.40
46976;DHT22;32724;51.094;6.996;2023-05-29T12:23:00;21.80;85.80
46976;DHT22;32724;51.094;6.996;2023-05-29T12:25:26;22.00;85.70
46976;DHT22;32724;51.094;6.996;2023-05-29T12:27:52;21.70;85.10
46976;DHT22;32724;51.094;6.996;2023-05-29T12:30:20;21.70;86.40
46976;DHT22;32724;51.094;6.996;2023-05-29T12:32:47;21.60;84.90
46976;DHT22;32724;51.094;6.996;2023-05-29T12:35:16;21.30;85.00
46976;DHT22;32724;51.094;6.996;2023-05-29T12:37:43;21.30;85.70
46976;DHT22;32724;51.094;6.996;2023-05-29T12:40:15;21.30;86.00
46976;DHT22;32724;51.094;6.996;2023-05-29T12:42:41;21.30;85.60
46976;DHT22;32724;51.094;6.996;2023-05-29T12:45:07;21.30;86.40
46976;DHT22;32724;51.094;6.996;2023-05-29T12:47:33;21.20;86.60
46976;DHT22;32724;51.094;6.996;2023-05-29T12:49:59;21.20;87.30
46976;DHT22;32724;51.094;6.996;2023-05-29T12:52:24;21.40;85.80
46976;DHT22;32724;51.094;6.996;2023-05-29T12:54:50;21.50;84.70
46976;DHT22;32724;51.094;6.996;2023-05-29T12:57:15;21.40;84.90
46976;DHT22;32724;51.094;6.996;2023-05-29T12:59:40;21.20;84.80
46976;DHT22;32724;51.094;6.996;2023-05-29T13:02:06;21.40;87.80
46976;DHT22;32724;51.094;6.996;2023-05-29T13:04:35;21.40;85.20
46976;DHT22;32724;51.094;6.996;2023-05-29T13:07:00;21.60;85.60
46976;DHT22;32724;51.094;6.996;2023-05-29T13:09:26;21.50;84.70
46976;DHT22;32724;51.094;6.996;2023-05-29T13:11:51;21.50;85.70
46976;DHT22;32724;51.094;6.996;2023-05-29T13:14:18;21.60;85.40
46976;DHT22;32724;51.094;6.996;2023-05-29T13:16:43;21.60;85.00
46976;DHT22;32724;51.094;6.996;2023-05-29T13:19:09;21.50;84.20
46976;DHT22;32724;51.094;6.996;2023-05-29T13:21:34;21.50;85.10
46976;DHT22;32724;51.094;6.996;2023-05-29T13:24:00;21.70;85.80
46976;DHT22;32724;51.094;6.996;2023-05-29T13:26:26;21.80;85.20
46976;DHT22;32724;51.094;6.996;2023-05-29T13:28:52;21.90;82.80
46976;DHT22;32724;51.094;6.996;2023-05-29T13:31:17;21.70;83.20
46976;DHT22;32724;51.094;6.996;2023-05-29T13:33:43;21.60;83.50
46976;DHT22;32724;51.094;6.996;2023-05-29T13:36:08;21.50;84.30
46976;DHT22;32724;51.094;6.996;2023-05-29T13:38:34;21.50;84.80
46976;DHT22;32724;51.094;6.996;2023-05-29T13:40:59;21.40;83.90
46976;DHT22;32724;51.094;6.996;2023-05-29T13:43:25;21.40;84.00
46976;DHT22;32724;51.094;6.996;2023-05-29T13:45:50;21.60;83.40
46976;DHT22;32724;51.094;6.996;2023-05-29T13:48:16;21.60;85.00
46976;DHT22;32724;51.094;6.996;2023-05-29T13:50:41;21.70;83.40
46976;DHT22;32724;51.094;6.996;2023-05-29T13:53:07;21.70;83.70
46976;DHT22;32724;51.094;6.996;2023-05-29T13:55:32;21.70;83.10
46976;DHT22;32724;51.094;6.996;2023-05-29T13:57:57;21.60;83.70
46976;DHT22;32724;51.094;6.996;2023-05-29T14:00:23;21.50;83.80
46976;DHT22;32724;51.094;6.996;2023-05-29T14:02:48;21.50;82.80
46976;DHT22;32724;51.094;6.996;2023-05-29T14:05:14;21.30;83.50
46976;DHT22;32724;51.094;6.996;2023-05-29T14:07:39;21.20;84.00
46976;DHT22;32724;51.094;6.996;2023-05-29T14:10:05;20.90;84.60
46976;DHT22;32724;51.094;6.996;2023-05-29T14:12:31;20.90;85.00
46976;DHT22;32724;51.094;6.996;2023-05-29T14:14:56;20.90;85.40
46976;DHT22;32724;51.094;6.996;2023-05-29T14:17:22;21.10;83.40
46976;DHT22;32724;51.094;6.996;2023-05-29T14:19:47;21.00;84.20
46976;DHT22;32724;51.094;6.996;2023-05-29T14:22:13;21.00;83.90
46976;DHT22;32724;51.094;6.996;2023-05-29T14:24:38;20.90;84.50
46976;DHT22;32724;51.094;6.996;2023-05-29T14:27:04;20.90;85.50
46976;DHT22;32724;51.094;6.996;2023-05-29T14:29:29;21.00;85.30
46976;DHT22;32724;51.094;6.996;2023-05-29T14:31:55;20.90;86.10
46976;DHT22;32724;51.094;6.996;2023-05-29T14:34:20;20.90;85.50
46976;DHT22;32724;51.094;6.996;2023-05-29T14:36:46;21.00;87.20
46976;DHT22;32724;51.094;6.996;2023-05-29T14:39:12;21.40;84.60
46976;DHT22;32724;51.094;6.996;2023-05-29T14:41:38;21.30;84.50
46976;DHT22;32724;51.094;6.996;2023-05-29T14:44:03;21.30;83.70
46976;DHT22;32724;51.094;6.996;2023-05-29T14:46:29;21.30;84.90
46976;DHT22;32724;51.094;6.996;2023-05-29T14:49:00;21.30;84.70
46976;DHT22;32724;51.094;6.996;2023-05-29T14:51:25;21.20;85.30
46976;DHT22;32724;51.094;6.996;2023-05-29T14:53:51;21.30;84.80
46976;DHT22;32724;51.094;6.996;2023-05-29T14:56:16;21.30;83.50
46976;DHT22;32724;51.094;6.996;2023-05-29T14:58:44;21.10;82.60
46976;DHT22;32724;51.094;6.996;2023-05-29T15:01:10;20.80;83.50
46976;DHT22;32724;51.094;6.996;2023-05-29T15:03:35;20.90;84.90
46976;DHT22;32724;51.094;6.996;2023-05-29T15:06:02;20.80;84.00
46976;DHT22;32724;51.094;6.996;2023-05-29T15:08:28;20.80;83.40
46976;DHT22;32724;51.094;6.996;2023-05-29T15:10:56;20.70;84.00
46976;DHT22;32724;51.094;6.996;2023-05-29T15:13:22;20.70;84.10
46976;DHT22;32724;51.094;6.996;2023-05-29T15:15:47;20.70;83.90
46976;DHT22;32724;51.094;6.996;2023-05-29T15:18:13;20.80;83.90
46976;DHT22;32724;51.094;6.996;2023-05-29T15:20:38;20.70;83.60
46976;DHT22;32724;51.094;6.996;2023-05-29T15:23:03;20.80;83.70
46976;DHT22;32724;51.094;6.996;2023-05-29T15:25:29;20.90;84.10
46976;DHT22;32724;51.094;6.996;2023-05-29T15:27:54;20.90;83.00
46976;DHT22;32724;51.094;6.996;2023-05-29T15:30:20;20.80;82.40
46976;DHT22;32724;51.094;6.996;2023-05-29T15:32:46;20.60;83.50
46976;DHT22;32724;51.094;6.996;2023-05-29T15:35:13;20.50;83.70
46976;DHT22;32724;51.094;6.996;2023-05-29T15:37:39;20.30;84.80
46976;DHT22;32724;51.094;6.996;2023-05-29T15:40:06;20.30;85.50